West Okoboji, Iowa
Current Conditions -  °F | °C
As of 11:14 AM on Wednesday 26 Nov 2014 (Local Time) from KSPW Reporting Station
Light Snow Light Snow  
Wind Chill: 13°   Ceiling: 1700
Heat Index: 26°   Visibility: 1.2mi
Dew Point: 21°   Wind: 18mph
Humidity: 81%   Direction: 10°N
Pressure: 30.1"   Gusts: 28mph
Location:  43.2989°N, 95.2104°W
Report Text: KSPW 261714Z AUTO 01016G24KT 1 1/4SM -SN FEW010 OVC017 M03/M06 A3010 RMK AO2 P0000 T10331061 TSNO
Loading
Personal Weather Stations






























Interactive Weather Map New forecast layout! Learn more

10-Day Weather Forecast

Advertisements
Track Severe Weather on mobile